createdAt,value
2022-08-29T00:00:17.758Z,0.00
2022-08-29T00:01:15.422Z,0.00
2022-08-29T00:02:15.427Z,0.00
2022-08-29T00:03:15.384Z,0.00
2022-08-29T00:04:15.438Z,0.00
2022-08-29T00:05:15.374Z,0.00
2022-08-29T00:06:15.343Z,0.00
2022-08-29T00:07:15.335Z,0.00
2022-08-29T00:08:15.483Z,0.00
2022-08-29T00:09:15.335Z,0.00
2022-08-29T00:10:15.320Z,0.00
2022-08-29T00:11:15.413Z,0.00
2022-08-29T00:12:15.288Z,0.00
2022-08-29T00:13:15.267Z,0.00
2022-08-29T00:14:21.104Z,0.00
2022-08-29T00:15:16.247Z,0.00
2022-08-29T00:16:15.279Z,0.00
2022-08-29T00:17:15.218Z,0.00
2022-08-29T00:18:15.437Z,0.00
2022-08-29T00:19:15.189Z,0.00
2022-08-29T00:20:15.228Z,0.00
2022-08-29T00:21:15.167Z,0.00
2022-08-29T00:22:15.215Z,0.00
2022-08-29T00:23:15.148Z,0.00
2022-08-29T00:24:15.157Z,0.00
2022-08-29T00:25:15.164Z,0.00
2022-08-29T00:26:15.258Z,0.00
2022-08-29T00:27:15.109Z,0.00
2022-08-29T00:28:15.286Z,0.00
2022-08-29T00:29:15.100Z,0.00
2022-08-29T00:30:15.071Z,0.00
2022-08-29T00:31:15.105Z,0.00
2022-08-29T00:32:15.050Z,0.00
2022-08-29T00:33:15.059Z,0.00
2022-08-29T00:34:15.054Z,0.00
2022-08-29T00:35:15.084Z,0.00
2022-08-29T00:36:15.058Z,0.00
2022-08-29T00:37:15.025Z,0.00
2022-08-29T00:38:15.190Z,0.00
2022-08-29T00:39:14.988Z,0.00
2022-08-29T00:40:15.016Z,0.00
2022-08-29T00:41:14.954Z,0.00
2022-08-29T00:42:14.957Z,0.00
2022-08-29T00:43:14.943Z,0.00
2022-08-29T00:44:14.944Z,0.00
2022-08-29T00:45:14.912Z,0.00
2022-08-29T00:46:14.982Z,0.00
2022-08-29T00:47:14.933Z,0.00
2022-08-29T00:48:15.037Z,0.00
2022-08-29T00:49:14.885Z,0.00
2022-08-29T00:50:14.869Z,0.00
2022-08-29T00:51:14.844Z,0.00
2022-08-29T00:52:14.847Z,0.00
2022-08-29T00:53:14.827Z,0.00
2022-08-29T00:54:14.835Z,0.00
2022-08-29T00:55:14.795Z,0.00
2022-08-29T00:56:14.827Z,0.00
2022-08-29T00:57:14.795Z,0.00
2022-08-29T00:58:14.988Z,0.00
2022-08-29T00:59:14.789Z,0.00
2022-08-29T01:00:14.775Z,0.00
2022-08-29T01:01:14.794Z,0.00
2022-08-29T01:02:14.785Z,0.00
2022-08-29T01:03:14.720Z,0.00
2022-08-29T01:04:23.597Z,0.00
2022-08-29T01:05:15.739Z,0.00
2022-08-29T01:06:14.704Z,0.00
2022-08-29T01:07:14.678Z,0.00
2022-08-29T01:08:14.851Z,0.00
2022-08-29T01:09:14.649Z,0.00
2022-08-29T01:10:14.791Z,0.00
2022-08-29T01:11:14.621Z,0.00
2022-08-29T01:12:14.644Z,0.00
2022-08-29T01:13:14.589Z,0.00
2022-08-29T01:14:14.649Z,0.00
2022-08-29T01:15:14.576Z,0.00
2022-08-29T01:16:14.632Z,0.00
2022-08-29T01:17:14.580Z,0.00
2022-08-29T01:18:14.663Z,0.00
2022-08-29T01:19:14.560Z,0.00
2022-08-29T01:20:14.594Z,0.00
2022-08-29T01:21:14.510Z,0.00
2022-08-29T01:22:14.491Z,0.00
2022-08-29T01:23:14.495Z,0.00
2022-08-29T01:24:14.531Z,0.00
2022-08-29T01:25:14.466Z,0.00
2022-08-29T01:26:14.560Z,0.00
2022-08-29T01:27:14.446Z,0.00
2022-08-29T01:28:14.537Z,0.00
2022-08-29T01:29:14.435Z,0.00
2022-08-29T01:30:14.412Z,0.00
2022-08-29T01:31:14.429Z,0.00
2022-08-29T01:32:15.432Z,0.00
2022-08-29T01:33:14.383Z,0.00
2022-08-29T01:34:14.383Z,0.00
2022-08-29T01:35:14.363Z,0.00
2022-08-29T01:36:14.338Z,0.00
2022-08-29T01:37:14.336Z,0.00
2022-08-29T01:38:14.405Z,0.00
2022-08-29T01:39:14.324Z,0.00
2022-08-29T01:40:14.458Z,0.00
2022-08-29T01:41:14.285Z,0.00
2022-08-29T01:42:14.305Z,0.00
2022-08-29T01:43:14.257Z,0.00
2022-08-29T01:44:14.285Z,0.00
2022-08-29T01:45:14.265Z,0.00
2022-08-29T01:46:14.406Z,0.00
2022-08-29T01:47:15.167Z,0.00
2022-08-29T01:48:14.329Z,0.00
2022-08-29T01:49:14.219Z,0.00
2022-08-29T01:50:14.198Z,0.00
2022-08-29T01:51:14.175Z,0.00
2022-08-29T01:52:14.177Z,0.00
2022-08-29T01:53:14.153Z,0.00
2022-08-29T01:54:14.147Z,0.00
2022-08-29T01:55:14.138Z,0.00
2022-08-29T01:56:14.108Z,0.00
2022-08-29T01:57:14.111Z,0.00
2022-08-29T01:58:14.225Z,0.00
2022-08-29T01:59:14.079Z,0.00
2022-08-29T02:00:14.131Z,0.00
2022-08-29T02:01:14.111Z,0.00
2022-08-29T02:02:14.190Z,0.00
2022-08-29T02:03:14.042Z,0.00
2022-08-29T02:04:14.047Z,0.00
2022-08-29T02:05:14.030Z,0.00
2022-08-29T02:06:14.060Z,0.00
2022-08-29T02:07:13.995Z,0.00
2022-08-29T02:08:14.217Z,0.00
2022-08-29T02:09:13.963Z,0.00
2022-08-29T02:10:13.994Z,0.00
2022-08-29T02:11:13.950Z,0.00
2022-08-29T02:12:13.941Z,0.00
2022-08-29T02:13:13.931Z,0.00
2022-08-29T02:14:19.394Z,0.00
2022-08-29T02:15:14.903Z,0.00
2022-08-29T02:16:13.968Z,0.00
2022-08-29T02:17:13.882Z,0.00
2022-08-29T02:18:14.009Z,0.00
2022-08-29T02:19:13.868Z,0.00
2022-08-29T02:20:13.914Z,0.00
2022-08-29T02:21:13.846Z,0.00
2022-08-29T02:22:13.834Z,0.00
2022-08-29T02:23:30.161Z,0.00
2022-08-29T02:24:25.716Z,0.00
2022-08-29T02:25:14.804Z,0.00
2022-08-29T02:26:13.925Z,0.00
2022-08-29T02:27:13.776Z,0.00
2022-08-29T02:28:13.913Z,0.00
2022-08-29T02:29:13.760Z,0.00
2022-08-29T02:30:13.772Z,0.00
2022-08-29T02:31:13.815Z,0.00
2022-08-29T02:32:13.730Z,0.00
2022-08-29T02:33:13.696Z,0.00
2022-08-29T02:34:13.695Z,0.00
2022-08-29T02:35:13.696Z,0.00
2022-08-29T02:36:13.677Z,0.00
2022-08-29T02:37:13.658Z,0.00
2022-08-29T02:38:13.810Z,0.00
2022-08-29T02:39:13.636Z,0.00
2022-08-29T02:40:13.756Z,0.00
2022-08-29T02:41:14.369Z,0.00
2022-08-29T02:42:13.687Z,0.00
2022-08-29T02:43:13.599Z,0.00
2022-08-29T02:44:13.659Z,0.00
2022-08-29T02:45:13.575Z,0.00
2022-08-29T02:46:13.625Z,0.00
2022-08-29T02:47:13.550Z,0.00
2022-08-29T02:48:13.662Z,0.00
2022-08-29T02:49:13.541Z,0.00
2022-08-29T02:50:13.565Z,0.00
2022-08-29T02:51:13.513Z,0.00
2022-08-29T02:52:13.519Z,0.00
2022-08-29T02:53:13.488Z,0.00
2022-08-29T02:54:13.510Z,0.00
2022-08-29T02:55:13.473Z,0.00
2022-08-29T02:56:14.355Z,0.00
2022-08-29T02:57:13.443Z,0.00
2022-08-29T02:58:13.640Z,0.00
2022-08-29T02:59:13.661Z,0.00
2022-08-29T03:00:13.433Z,0.00
2022-08-29T03:01:13.425Z,0.00
2022-08-29T03:02:13.460Z,0.00
2022-08-29T03:03:13.382Z,0.00
2022-08-29T03:04:13.412Z,0.00
2022-08-29T03:05:13.352Z,0.00
2022-08-29T03:06:13.389Z,0.00
2022-08-29T03:07:13.354Z,0.00
2022-08-29T03:08:13.512Z,0.00
2022-08-29T03:09:13.314Z,0.00
2022-08-29T03:10:13.303Z,0.00
2022-08-29T03:11:13.297Z,0.00
2022-08-29T03:12:13.306Z,0.00
2022-08-29T03:13:13.287Z,0.00
2022-08-29T03:14:13.285Z,0.00
2022-08-29T03:15:13.253Z,0.00
2022-08-29T03:16:13.434Z,0.00
2022-08-29T03:17:13.232Z,0.00
2022-08-29T03:18:13.407Z,0.00
2022-08-29T03:19:13.206Z,0.00
2022-08-29T03:20:13.195Z,0.00
2022-08-29T03:21:13.177Z,0.00
2022-08-29T03:22:13.206Z,0.00
2022-08-29T03:23:13.168Z,0.00
2022-08-29T03:24:13.207Z,0.00
2022-08-29T03:25:13.135Z,0.00
2022-08-29T03:26:13.139Z,0.00
2022-08-29T03:27:13.106Z,0.00
2022-08-29T03:28:13.226Z,0.00
2022-08-29T03:29:13.087Z,0.00
2022-08-29T03:30:13.086Z,0.00
2022-08-29T03:31:13.111Z,0.00
2022-08-29T03:32:13.068Z,0.00
2022-08-29T03:33:13.054Z,0.00
2022-08-29T03:34:13.108Z,0.00
2022-08-29T03:35:13.019Z,0.00
2022-08-29T03:36:14.442Z,0.00
2022-08-29T03:37:13.006Z,0.00
2022-08-29T03:38:13.209Z,0.00
2022-08-29T03:39:12.979Z,0.00
2022-08-29T03:40:13.063Z,0.00
2022-08-29T03:41:13.000Z,0.00
2022-08-29T03:42:12.991Z,0.00
2022-08-29T03:43:12.949Z,0.00
2022-08-29T03:44:12.971Z,0.00
2022-08-29T03:45:12.919Z,0.00
2022-08-29T03:46:13.082Z,0.00
2022-08-29T03:47:12.898Z,0.00
2022-08-29T03:48:12.973Z,0.00
2022-08-29T03:49:12.871Z,0.00
2022-08-29T03:50:12.861Z,0.00
2022-08-29T03:51:12.851Z,0.00
2022-08-29T03:52:12.843Z,0.00
2022-08-29T03:53:12.841Z,0.00
2022-08-29T03:54:12.821Z,0.00
2022-08-29T03:55:12.813Z,0.00
2022-08-29T03:56:18.364Z,0.00
2022-08-29T03:57:13.793Z,0.00
2022-08-29T03:58:13.134Z,0.00
2022-08-29T03:59:12.766Z,0.00
2022-08-29T04:00:12.764Z,0.00
2022-08-29T04:01:12.752Z,0.00
2022-08-29T04:02:12.785Z,0.00
2022-08-29T04:03:12.794Z,0.00
2022-08-29T04:04:12.754Z,4.00
2022-08-29T04:05:12.705Z,4.00
2022-08-29T04:06:12.774Z,0.00
2022-08-29T04:07:12.676Z,4.00
2022-08-29T04:08:12.794Z,4.00
2022-08-29T04:09:12.654Z,4.00
2022-08-29T04:10:12.778Z,4.00
2022-08-29T04:11:12.634Z,4.00
2022-08-29T04:12:12.775Z,4.00
2022-08-29T04:13:12.638Z,8.00
2022-08-29T04:14:12.606Z,8.00
2022-08-29T04:15:12.585Z,12.00
2022-08-29T04:16:12.808Z,8.00
2022-08-29T04:17:12.585Z,16.00
2022-08-29T04:18:12.556Z,16.00
2022-08-29T04:19:12.547Z,20.00
2022-08-29T04:20:12.537Z,24.00
2022-08-29T04:21:12.527Z,28.00
2022-08-29T04:22:12.547Z,32.00
2022-08-29T04:23:12.508Z,36.00
2022-08-29T04:24:12.617Z,40.00
2022-08-29T04:25:12.487Z,52.00
2022-08-29T04:26:31.750Z,60.00
2022-08-29T04:27:13.476Z,72.00
2022-08-29T04:28:12.558Z,80.00
2022-08-29T04:29:12.452Z,92.00
2022-08-29T04:30:12.438Z,104.00
2022-08-29T04:31:12.439Z,124.00
2022-08-29T04:32:12.483Z,140.00
2022-08-29T04:33:16.181Z,156.00
2022-08-29T04:34:13.378Z,176.00
2022-08-29T04:35:12.381Z,200.00
2022-08-29T04:36:14.994Z,224.00
2022-08-29T04:37:12.379Z,248.00
2022-08-29T04:38:12.400Z,272.00
2022-08-29T04:39:12.328Z,296.00
2022-08-29T04:40:12.391Z,320.00
2022-08-29T04:41:12.311Z,348.00
2022-08-29T04:42:13.155Z,376.00
2022-08-29T04:43:12.299Z,412.00
2022-08-29T04:44:12.341Z,448.00
2022-08-29T04:45:12.262Z,488.00
2022-08-29T04:46:16.385Z,528.00
2022-08-29T04:47:13.266Z,572.00
2022-08-29T04:48:12.233Z,612.00
2022-08-29T04:49:12.224Z,660.00
2022-08-29T04:50:12.278Z,704.00
2022-08-29T04:51:12.197Z,752.00
2022-08-29T04:52:12.208Z,796.00
2022-08-29T04:53:12.183Z,848.00
2022-08-29T04:54:12.220Z,908.00
2022-08-29T04:55:12.163Z,972.00
2022-08-29T04:56:12.132Z,1036.00
2022-08-29T04:57:12.142Z,1096.00
2022-08-29T04:58:12.123Z,1160.00
2022-08-29T04:59:12.144Z,1220.00
2022-08-29T05:00:12.102Z,1276.00
2022-08-29T05:01:12.125Z,1316.00
2022-08-29T05:02:12.174Z,1348.00
2022-08-29T05:03:12.120Z,1388.00
2022-08-29T05:04:14.515Z,1436.00
2022-08-29T05:05:12.044Z,1484.00
2022-08-29T05:06:12.046Z,1544.00
2022-08-29T05:07:12.025Z,1612.00
2022-08-29T05:08:12.078Z,1692.00
2022-08-29T05:09:11.996Z,1768.00
2022-08-29T05:10:12.028Z,1852.00
2022-08-29T05:11:11.981Z,1940.00
2022-08-29T05:12:11.978Z,2036.00
2022-08-29T05:13:11.966Z,2140.00
2022-08-29T05:14:11.958Z,2256.00
2022-08-29T05:15:11.938Z,2380.00
2022-08-29T05:16:12.005Z,2524.00
2022-08-29T05:17:11.908Z,2672.00
2022-08-29T05:18:11.919Z,2816.00
2022-08-29T05:19:15.564Z,2956.00
2022-08-29T05:20:12.055Z,3104.00
2022-08-29T05:21:11.858Z,3256.00
2022-08-29T05:22:11.869Z,3396.00
2022-08-29T05:23:11.867Z,3524.00
2022-08-29T05:24:11.887Z,3648.00
2022-08-29T05:25:17.304Z,3776.00
2022-08-29T05:26:12.933Z,3904.00
2022-08-29T05:27:11.798Z,4024.00
2022-08-29T05:28:11.838Z,4136.00
2022-08-29T05:29:11.779Z,4236.00
2022-08-29T05:30:11.830Z,4324.00
2022-08-29T05:31:13.733Z,4408.00
2022-08-29T05:32:11.758Z,4484.00
2022-08-29T05:33:11.741Z,4588.00
2022-08-29T05:34:33.796Z,4704.00
2022-08-29T05:35:12.709Z,4808.00
2022-08-29T05:36:11.749Z,4900.00
2022-08-29T05:37:11.690Z,4972.00
2022-08-29T05:38:11.855Z,5032.00
2022-08-29T05:39:11.675Z,5100.00
2022-08-29T05:40:11.739Z,5156.00
2022-08-29T05:41:11.649Z,5216.00
2022-08-29T05:42:11.671Z,5244.00
2022-08-29T05:43:11.632Z,5344.00
2022-08-29T05:44:11.696Z,5472.00
2022-08-29T05:45:11.592Z,5588.00
2022-08-29T05:46:11.663Z,5736.00
2022-08-29T05:47:11.583Z,5868.00
2022-08-29T05:48:11.673Z,5984.00
2022-08-29T05:49:11.580Z,6108.00
2022-08-29T05:50:11.618Z,6280.00
2022-08-29T05:51:11.543Z,6444.00
2022-08-29T05:52:11.721Z,6648.00
2022-08-29T05:53:11.524Z,6864.00
2022-08-29T05:54:11.546Z,7012.00
2022-08-29T05:55:11.504Z,7180.00
2022-08-29T05:56:11.506Z,7260.00
2022-08-29T05:57:15.397Z,7332.00
2022-08-29T05:58:12.501Z,7428.00
2022-08-29T05:59:11.445Z,7456.00
2022-08-29T06:00:11.455Z,7484.00
2022-08-29T06:01:11.429Z,7508.00
2022-08-29T06:02:11.584Z,7576.00
2022-08-29T06:03:11.571Z,7704.00
2022-08-29T06:04:11.507Z,7828.00
2022-08-29T06:05:11.376Z,8088.00
2022-08-29T06:06:11.397Z,8544.00
2022-08-29T06:07:11.370Z,9296.00
2022-08-29T06:08:11.433Z,9588.00
2022-08-29T06:09:11.341Z,9952.00
2022-08-29T06:10:11.348Z,10228.00
2022-08-29T06:11:11.369Z,11620.00
2022-08-29T06:12:11.321Z,12432.00
2022-08-29T06:13:11.329Z,13884.00
2022-08-29T06:14:11.351Z,15872.00
2022-08-29T06:15:11.277Z,16672.00
2022-08-29T06:16:11.305Z,15488.00
2022-08-29T06:17:11.254Z,14640.00
2022-08-29T06:18:11.309Z,13828.00
2022-08-29T06:19:11.240Z,13864.00
2022-08-29T06:20:11.248Z,15904.00
2022-08-29T06:21:11.210Z,20224.00
2022-08-29T06:22:11.251Z,21312.00
2022-08-29T06:23:11.199Z,18624.00
2022-08-29T06:24:11.188Z,18368.00
2022-08-29T06:25:37.373Z,18400.00
2022-08-29T06:26:12.209Z,17888.00
2022-08-29T06:27:11.132Z,22528.00
2022-08-29T06:28:11.212Z,25376.00
2022-08-29T06:29:11.115Z,26464.00
2022-08-29T06:30:11.164Z,19520.00
2022-08-29T06:31:11.145Z,22848.00
2022-08-29T06:32:11.298Z,24960.00
2022-08-29T06:33:11.074Z,24064.00
2022-08-29T06:34:11.068Z,18016.00
2022-08-29T06:35:11.075Z,18816.00
2022-08-29T06:36:11.054Z,16800.00
2022-08-29T06:37:11.039Z,19264.00
2022-08-29T06:38:14.018Z,27936.00
2022-08-29T06:39:11.015Z,18144.00
2022-08-29T06:40:11.115Z,15052.00
2022-08-29T06:41:10.979Z,20192.00
2022-08-29T06:42:10.992Z,15872.00
2022-08-29T06:43:10.974Z,15000.00
2022-08-29T06:44:10.958Z,15016.00
2022-08-29T06:45:10.936Z,14448.00
2022-08-29T06:46:10.946Z,14192.00
2022-08-29T06:47:10.918Z,14732.00
2022-08-29T06:48:10.988Z,19712.00
2022-08-29T06:49:10.921Z,19040.00
2022-08-29T06:50:10.938Z,18272.00
2022-08-29T06:51:10.870Z,15168.00
2022-08-29T06:52:10.931Z,16384.00
2022-08-29T06:53:26.916Z,14512.00
2022-08-29T06:54:11.856Z,13232.00
2022-08-29T06:55:10.827Z,13852.00
2022-08-29T06:56:11.437Z,15212.00
2022-08-29T06:57:10.802Z,14684.00
2022-08-29T06:58:10.820Z,17024.00
2022-08-29T06:59:10.782Z,20128.00
2022-08-29T07:00:16.886Z,20928.00
2022-08-29T07:01:11.817Z,24480.00
2022-08-29T07:02:10.936Z,25728.00
2022-08-29T07:03:10.809Z,17632.00
2022-08-29T07:04:14.302Z,11632.00
2022-08-29T07:05:10.784Z,12864.00
2022-08-29T07:06:10.705Z,15436.00
2022-08-29T07:07:10.695Z,16768.00
2022-08-29T07:08:10.817Z,14272.00
2022-08-29T07:09:10.677Z,14384.00
2022-08-29T07:10:10.806Z,12124.00
2022-08-29T07:11:10.648Z,11784.00
2022-08-29T07:12:10.657Z,13424.00
2022-08-29T07:13:10.673Z,30144.00
2022-08-29T07:14:10.648Z,32832.00
2022-08-29T07:15:10.597Z,36640.00
2022-08-29T07:16:10.878Z,41440.00
2022-08-29T07:17:10.590Z,37824.00
2022-08-29T07:18:11.710Z,35744.00
2022-08-29T07:19:10.570Z,39712.00
2022-08-29T07:20:10.590Z,43904.00
2022-08-29T07:21:10.540Z,44384.00
2022-08-29T07:22:10.549Z,48704.00
2022-08-29T07:23:10.531Z,54368.00
2022-08-29T07:24:10.540Z,55008.00
2022-08-29T07:25:10.501Z,50944.00
2022-08-29T07:26:10.629Z,44224.00
2022-08-29T07:27:10.471Z,42496.00
2022-08-29T07:28:10.565Z,49056.00
2022-08-29T07:29:10.523Z,48288.00
2022-08-29T07:30:10.604Z,37664.00
2022-08-29T07:31:10.509Z,33888.00
2022-08-29T07:32:10.505Z,37088.00
2022-08-29T07:33:10.477Z,42464.00
2022-08-29T07:34:10.493Z,44960.00
2022-08-29T07:35:13.376Z,44480.00
2022-08-29T07:36:10.386Z,37216.00
2022-08-29T07:37:10.365Z,42368.00
2022-08-29T07:38:10.394Z,48896.00
2022-08-29T07:39:10.346Z,58496.00
2022-08-29T07:40:10.414Z,62240.00
2022-08-29T07:41:10.318Z,63456.00
2022-08-29T07:42:10.338Z,63104.00
2022-08-29T07:43:10.316Z,61312.00
2022-08-29T07:44:10.331Z,64480.00
2022-08-29T07:45:10.293Z,67776.00
2022-08-29T07:46:10.452Z,67648.00
2022-08-29T07:47:10.259Z,66560.00
2022-08-29T07:48:10.394Z,68384.00
2022-08-29T07:49:10.240Z,68704.00
2022-08-29T07:50:10.291Z,69504.00
2022-08-29T07:51:10.757Z,71168.00
2022-08-29T07:52:10.234Z,70464.00
2022-08-29T07:53:10.203Z,66688.00
2022-08-29T07:54:10.203Z,68128.00
2022-08-29T07:55:10.199Z,69728.00
2022-08-29T07:56:10.208Z,70624.00
2022-08-29T07:57:10.144Z,71776.00
2022-08-29T07:58:10.162Z,73952.00
2022-08-29T07:59:10.134Z,72448.00
2022-08-29T08:00:10.173Z,73152.00
2022-08-29T08:01:12.572Z,74400.00
2022-08-29T08:02:11.302Z,72064.00
2022-08-29T08:03:10.110Z,73024.00
2022-08-29T08:04:10.105Z,76256.00
2022-08-29T08:05:10.076Z,77280.00
2022-08-29T08:06:10.239Z,75136.00
2022-08-29T08:07:13.548Z,74208.00
2022-08-29T08:08:15.230Z,75200.00
2022-08-29T08:09:11.020Z,76288.00
2022-08-29T08:10:10.027Z,76960.00
2022-08-29T08:11:10.012Z,78656.00
2022-08-29T08:12:10.021Z,80608.00
2022-08-29T08:13:10.054Z,84512.00
2022-08-29T08:14:10.073Z,81440.00
2022-08-29T08:15:09.963Z,80608.00
2022-08-29T08:16:09.956Z,83328.00
2022-08-29T08:17:09.950Z,87232.00
2022-08-29T08:18:10.310Z,83648.00
2022-08-29T08:19:09.937Z,92608.00
2022-08-29T08:20:09.944Z,80032.00
2022-08-29T08:21:09.899Z,55680.00
2022-08-29T08:22:10.120Z,70688.00
2022-08-29T08:23:09.915Z,92000.00
2022-08-29T08:24:09.955Z,76000.00
2022-08-29T08:25:09.863Z,82016.00
2022-08-29T08:26:09.849Z,69280.00
2022-08-29T08:27:09.829Z,67296.00
2022-08-29T08:28:09.882Z,73696.00
2022-08-29T08:29:09.851Z,80704.00
2022-08-29T08:30:09.883Z,50464.00
2022-08-29T08:31:09.892Z,70784.00
2022-08-29T08:32:09.813Z,75616.00
2022-08-29T08:33:09.782Z,84512.00
2022-08-29T08:34:09.772Z,65760.00
2022-08-29T08:35:09.753Z,70816.00
2022-08-29T08:36:09.764Z,103872.00
2022-08-29T08:37:09.735Z,97024.00
2022-08-29T08:38:09.880Z,90944.00
2022-08-29T08:39:09.707Z,101408.00
2022-08-29T08:40:09.903Z,95712.00
2022-08-29T08:41:09.697Z,73216.00
2022-08-29T08:42:09.698Z,51488.00
2022-08-29T08:43:09.757Z,55392.00
2022-08-29T08:44:09.737Z,58048.00
2022-08-29T08:45:09.649Z,54688.00
2022-08-29T08:46:09.707Z,55872.00
2022-08-29T08:47:09.678Z,48576.00
2022-08-29T08:48:09.685Z,63136.00
2022-08-29T08:49:09.610Z,64672.00
2022-08-29T08:50:09.773Z,88608.00
2022-08-29T08:51:09.593Z,83616.00
2022-08-29T08:52:10.479Z,83840.00
2022-08-29T08:53:09.586Z,69824.00
2022-08-29T08:54:09.570Z,72160.00
2022-08-29T08:55:09.545Z,69600.00
2022-08-29T08:56:09.575Z,52928.00
2022-08-29T08:57:09.523Z,76448.00
2022-08-29T08:58:09.585Z,60768.00
2022-08-29T08:59:09.566Z,61696.00
2022-08-29T09:00:09.547Z,98752.00
2022-08-29T09:01:09.523Z,74304.00
2022-08-29T09:02:09.574Z,87296.00
2022-08-29T09:03:09.468Z,75616.00
2022-08-29T09:04:09.568Z,85440.00
2022-08-29T09:05:09.449Z,81696.00
2022-08-29T09:06:09.437Z,103680.00
2022-08-29T09:07:09.429Z,103552.00
2022-08-29T09:08:09.492Z,105888.00
2022-08-29T09:09:10.295Z,98432.00
2022-08-29T09:10:09.455Z,97056.00
2022-08-29T09:11:09.384Z,85408.00
2022-08-29T09:12:09.493Z,103616.00
2022-08-29T09:13:09.383Z,95136.00
2022-08-29T09:14:09.427Z,84416.00
2022-08-29T09:15:13.361Z,96992.00
2022-08-29T09:16:09.402Z,100992.00
2022-08-29T09:17:09.338Z,94208.00
2022-08-29T09:18:13.536Z,85984.00
2022-08-29T09:19:09.308Z,97728.00
2022-08-29T09:20:09.413Z,106336.00
2022-08-29T09:21:29.963Z,111328.00
2022-08-29T09:22:10.300Z,110240.00
2022-08-29T09:23:09.282Z,96384.00
2022-08-29T09:24:09.279Z,97088.00
2022-08-29T09:25:09.253Z,96000.00
2022-08-29T09:26:09.265Z,98848.00
2022-08-29T09:27:09.221Z,85760.00
2022-08-29T09:28:09.283Z,90976.00
2022-08-29T09:29:09.210Z,100064.00
2022-08-29T09:30:09.279Z,100544.00
2022-08-29T09:31:09.203Z,116512.00
2022-08-29T09:32:09.364Z,111200.00
2022-08-29T09:33:09.305Z,107712.00
2022-08-29T09:34:11.733Z,112128.00
2022-08-29T09:35:10.056Z,107040.00
2022-08-29T09:36:09.152Z,113984.00
2022-08-29T09:37:09.128Z,102624.00
2022-08-29T09:38:09.117Z,93888.00
2022-08-29T09:39:09.116Z,92160.00
2022-08-29T09:40:09.261Z,97888.00
2022-08-29T09:41:09.088Z,104288.00
2022-08-29T09:42:09.089Z,105760.00
2022-08-29T09:43:09.069Z,107392.00
2022-08-29T09:44:09.124Z,98112.00
2022-08-29T09:45:09.047Z,100384.00
2022-08-29T09:46:09.270Z,104768.00
2022-08-29T09:47:09.027Z,106016.00
2022-08-29T09:48:09.075Z,95424.00
2022-08-29T09:49:09.022Z,95328.00
2022-08-29T09:50:09.087Z,103424.00
2022-08-29T09:51:08.987Z,101024.00
2022-08-29T09:52:09.033Z,108544.00
2022-08-29T09:53:24.357Z,104192.00
2022-08-29T09:54:10.017Z,105472.00
2022-08-29T09:55:08.976Z,106432.00
2022-08-29T09:56:09.001Z,101664.00
2022-08-29T09:57:08.946Z,107424.00
2022-08-29T09:58:09.016Z,111296.00
2022-08-29T09:59:08.908Z,108768.00
2022-08-29T10:00:08.899Z,112352.00
2022-08-29T10:01:10.361Z,107584.00
2022-08-29T10:02:08.983Z,103232.00
2022-08-29T10:03:08.916Z,104032.00
2022-08-29T10:04:08.945Z,109792.00
2022-08-29T10:05:13.351Z,113088.00
2022-08-29T10:06:08.881Z,120032.00
2022-08-29T10:07:08.841Z,120096.00
2022-08-29T10:08:08.934Z,115456.00
2022-08-29T10:09:08.823Z,107712.00
2022-08-29T10:10:08.880Z,108384.00
2022-08-29T10:11:08.803Z,105760.00
2022-08-29T10:12:09.155Z,113568.00
2022-08-29T10:13:08.846Z,116992.00
2022-08-29T10:14:12.703Z,114656.00
2022-08-29T10:15:09.755Z,105376.00
2022-08-29T10:16:08.933Z,118432.00
2022-08-29T10:17:08.751Z,127392.00
2022-08-29T10:18:08.747Z,123200.00
2022-08-29T10:19:08.748Z,113248.00
2022-08-29T10:20:08.727Z,104000.00
2022-08-29T10:21:08.699Z,91296.00
2022-08-29T10:22:08.792Z,103168.00
2022-08-29T10:23:08.747Z,119328.00
2022-08-29T10:24:09.030Z,118592.00
2022-08-29T10:25:08.671Z,119360.00
2022-08-29T10:26:08.926Z,110304.00
2022-08-29T10:27:08.650Z,102144.00
2022-08-29T10:28:08.861Z,104064.00
2022-08-29T10:29:08.652Z,102656.00
2022-08-29T10:30:08.656Z,104032.00
2022-08-29T10:31:08.994Z,100288.00
2022-08-29T10:32:08.665Z,104608.00
2022-08-29T10:33:08.885Z,100768.00
2022-08-29T10:34:08.625Z,88576.00
2022-08-29T10:35:08.665Z,99616.00
2022-08-29T10:36:08.692Z,103936.00
2022-08-29T10:37:08.560Z,110912.00
2022-08-29T10:38:08.766Z,104896.00
2022-08-29T10:39:08.537Z,102688.00
2022-08-29T10:40:08.796Z,108384.00
2022-08-29T10:41:08.508Z,96032.00
2022-08-29T10:42:08.539Z,99264.00
2022-08-29T10:43:08.559Z,85664.00
2022-08-29T10:44:08.571Z,98784.00
2022-08-29T10:45:08.480Z,102976.00
2022-08-29T10:46:08.653Z,110240.00
2022-08-29T10:47:08.463Z,101024.00
2022-08-29T10:48:08.544Z,109984.00
2022-08-29T10:49:08.462Z,106944.00
2022-08-29T10:50:16.972Z,118688.00
2022-08-29T10:51:09.413Z,126272.00
2022-08-29T10:52:08.431Z,124640.00
2022-08-29T10:53:08.405Z,116640.00
2022-08-29T10:54:08.457Z,125760.00
2022-08-29T10:55:08.386Z,113952.00
2022-08-29T10:56:08.426Z,100096.00
2022-08-29T10:57:08.365Z,91584.00
2022-08-29T10:58:12.500Z,94848.00
2022-08-29T10:59:08.357Z,99648.00
2022-08-29T11:00:08.447Z,104032.00
2022-08-29T11:01:09.474Z,89376.00
2022-08-29T11:02:08.426Z,91008.00
2022-08-29T11:03:08.330Z,88768.00
2022-08-29T11:04:08.449Z,78848.00
2022-08-29T11:05:08.313Z,89856.00
2022-08-29T11:06:08.313Z,94848.00
2022-08-29T11:07:08.333Z,84416.00
2022-08-29T11:08:09.707Z,96192.00
2022-08-29T11:09:08.271Z,101824.00
2022-08-29T11:10:08.324Z,91552.00
2022-08-29T11:11:08.240Z,106368.00
2022-08-29T11:12:08.245Z,103136.00
2022-08-29T11:13:08.214Z,100384.00
2022-08-29T11:14:08.238Z,116224.00
2022-08-29T11:15:08.197Z,108800.00
2022-08-29T11:16:08.440Z,103744.00
2022-08-29T11:17:08.186Z,102080.00
2022-08-29T11:18:08.426Z,92000.00
2022-08-29T11:19:08.177Z,82816.00
2022-08-29T11:20:08.199Z,83968.00
2022-08-29T11:21:08.138Z,87008.00
2022-08-29T11:22:08.163Z,82752.00
2022-08-29T11:23:08.132Z,86112.00
2022-08-29T11:24:08.111Z,96416.00
2022-08-29T11:25:08.139Z,89696.00
2022-08-29T11:26:08.137Z,87776.00
2022-08-29T11:27:08.081Z,82720.00
2022-08-29T11:28:08.155Z,88224.00
2022-08-29T11:29:08.103Z,93056.00
2022-08-29T11:30:08.124Z,100576.00
2022-08-29T11:31:08.091Z,94272.00
2022-08-29T11:32:08.035Z,87808.00
2022-08-29T11:33:08.094Z,77696.00
2022-08-29T11:34:08.043Z,81184.00
2022-08-29T11:35:08.005Z,84128.00
2022-08-29T11:36:08.016Z,82112.00
2022-08-29T11:37:07.992Z,96992.00
2022-08-29T11:38:08.038Z,96032.00
2022-08-29T11:39:07.966Z,108192.00
2022-08-29T11:40:08.048Z,104448.00
2022-08-29T11:42:09.022Z,99744.00
2022-08-29T11:43:12.420Z,78464.00
2022-08-29T11:44:07.911Z,94368.00
2022-08-29T11:45:07.955Z,74496.00
2022-08-29T11:46:07.912Z,62432.00
2022-08-29T11:47:07.953Z,104032.00
2022-08-29T11:48:07.901Z,66976.00
2022-08-29T11:49:07.864Z,49056.00
2022-08-29T11:50:07.992Z,43648.00
2022-08-29T11:51:07.846Z,50016.00
2022-08-29T11:52:07.849Z,83520.00
2022-08-29T11:53:07.997Z,107328.00
2022-08-29T11:54:07.825Z,49792.00
2022-08-29T11:55:07.816Z,64096.00
2022-08-29T11:56:07.847Z,87584.00
2022-08-29T11:57:07.797Z,118432.00
2022-08-29T11:58:11.289Z,127648.00
2022-08-29T11:59:07.796Z,124896.00
2022-08-29T12:00:07.779Z,135776.00
2022-08-29T12:01:08.109Z,110176.00
2022-08-29T12:02:07.798Z,117504.00
2022-08-29T12:03:15.060Z,121216.00
2022-08-29T12:04:08.784Z,116352.00
2022-08-29T12:05:07.712Z,110368.00
2022-08-29T12:06:07.751Z,127136.00
2022-08-29T12:07:07.720Z,126144.00
2022-08-29T12:08:33.179Z,84896.00
2022-08-29T12:09:13.221Z,114528.00
2022-08-29T12:10:08.691Z,38048.00
2022-08-29T12:11:07.654Z,37024.00
2022-08-29T12:12:07.673Z,77440.00
2022-08-29T12:13:07.643Z,75840.00
2022-08-29T12:14:07.632Z,118400.00
2022-08-29T12:15:07.616Z,109952.00
2022-08-29T12:16:08.750Z,79296.00
2022-08-29T12:17:07.617Z,117568.00